sensor_id;sensor_type;location;lat;lon;timestamp;pressure;altitude;pressure_sealevel;temperature;humidity
16331;BME280;8275;48.206;16.340;2023-06-10T00:01:22;98847.84;;;22.38;51.55
16331;BME280;8275;48.206;16.340;2023-06-10T00:03:51;98839.84;;;22.36;51.66
16331;BME280;8275;48.206;16.340;2023-06-10T00:06:21;98836.59;;;22.34;51.82
16331;BME280;8275;48.206;16.340;2023-06-10T00:08:51;98840.88;;;22.32;51.44
16331;BME280;8275;48.206;16.340;2023-06-10T00:11:21;98837.63;;;22.30;52.02
16331;BME280;8275;48.206;16.340;2023-06-10T00:13:50;98847.50;;;22.27;51.73
16331;BME280;8275;48.206;16.340;2023-06-10T00:16:18;98845.06;;;22.26;51.81
16331;BME280;8275;48.206;16.340;2023-06-10T00:18:47;98846.56;;;22.23;51.97
16331;BME280;8275;48.206;16.340;2023-06-10T00:21:16;98847.69;;;22.22;51.97
16331;BME280;8275;48.206;16.340;2023-06-10T00:23:46;98852.81;;;22.20;51.86
16331;BME280;8275;48.206;16.340;2023-06-10T00:26:14;98846.75;;;22.18;52.21
16331;BME280;8275;48.206;16.340;2023-06-10T00:28:43;98846.28;;;22.16;52.11
16331;BME280;8275;48.206;16.340;2023-06-10T00:31:12;98841.53;;;22.17;52.00
16331;BME280;8275;48.206;16.340;2023-06-10T00:33:40;98855.81;;;22.15;52.24
16331;BME280;8275;48.206;16.340;2023-06-10T00:36:09;98850.56;;;22.14;51.92
16331;BME280;8275;48.206;16.340;2023-06-10T00:38:37;98855.34;;;22.13;52.57
16331;BME280;8275;48.206;16.340;2023-06-10T00:41:08;98859.28;;;22.12;52.38
16331;BME280;8275;48.206;16.340;2023-06-10T00:43:37;98852.44;;;22.10;52.45
16331;BME280;8275;48.206;16.340;2023-06-10T00:46:05;98850.78;;;22.09;52.44
16331;BME280;8275;48.206;16.340;2023-06-10T00:48:34;98850.78;;;22.09;52.47
16331;BME280;8275;48.206;16.340;2023-06-10T00:51:05;98860.66;;;22.06;52.81
16331;BME280;8275;48.206;16.340;2023-06-10T00:53:37;98857.03;;;22.06;52.99
16331;BME280;8275;48.206;16.340;2023-06-10T00:56:08;98858.22;;;22.05;53.10
16331;BME280;8275;48.206;16.340;2023-06-10T00:58:37;98860.53;;;22.03;53.51
16331;BME280;8275;48.206;16.340;2023-06-10T01:01:06;98870.84;;;22.02;53.42
16331;BME280;8275;48.206;16.340;2023-06-10T01:03:38;98863.63;;;22.01;53.50
16331;BME280;8275;48.206;16.340;2023-06-10T01:06:18;98870.38;;;22.00;53.76
16331;BME280;8275;48.206;16.340;2023-06-10T01:08:56;98863.63;;;22.01;53.90
16331;BME280;8275;48.206;16.340;2023-06-10T01:11:36;98871.69;;;22.03;53.76
16331;BME280;8275;48.206;16.340;2023-06-10T01:14:05;98867.53;;;22.09;54.14
16331;BME280;8275;48.206;16.340;2023-06-10T01:16:34;98870.94;;;22.14;53.97
16331;BME280;8275;48.206;16.340;2023-06-10T01:19:04;98872.69;;;22.19;53.88
16331;BME280;8275;48.206;16.340;2023-06-10T01:21:35;98871.19;;;22.21;54.15
16331;BME280;8275;48.206;16.340;2023-06-10T01:24:07;98869.34;;;22.25;53.74
16331;BME280;8275;48.206;16.340;2023-06-10T01:26:38;98867.03;;;22.27;54.31
16331;BME280;8275;48.206;16.340;2023-06-10T01:29:17;98878.66;;;22.29;53.90
16331;BME280;8275;48.206;16.340;2023-06-10T01:31:51;98871.22;;;22.33;54.18
16331;BME280;8275;48.206;16.340;2023-06-10T01:34:24;98868.22;;;22.38;53.88
16331;BME280;8275;48.206;16.340;2023-06-10T01:36:55;98865.91;;;22.41;53.55
16331;BME280;8275;48.206;16.340;2023-06-10T01:39:25;98868.69;;;22.41;53.87
16331;BME280;8275;48.206;16.340;2023-06-10T01:41:54;98880.69;;;22.41;54.23
16331;BME280;8275;48.206;16.340;2023-06-10T01:44:23;98876.28;;;22.40;54.18
16331;BME280;8275;48.206;16.340;2023-06-10T01:46:52;98877.41;;;22.39;53.86
16331;BME280;8275;48.206;16.340;2023-06-10T01:49:21;98876.28;;;22.40;53.87
16331;BME280;8275;48.206;16.340;2023-06-10T01:51:51;98873.81;;;22.38;54.11
16331;BME280;8275;48.206;16.340;2023-06-10T01:54:20;98874.63;;;22.39;54.07
16331;BME280;8275;48.206;16.340;2023-06-10T01:56:49;98868.69;;;22.41;54.63
16331;BME280;8275;48.206;16.340;2023-06-10T01:59:17;98875.91;;;22.42;54.35
16331;BME280;8275;48.206;16.340;2023-06-10T02:01:46;98871.16;;;22.42;54.36
16331;BME280;8275;48.206;16.340;2023-06-10T02:04:14;98875.56;;;22.43;54.42
16331;BME280;8275;48.206;16.340;2023-06-10T02:06:43;98876.38;;;22.44;54.42
16331;BME280;8275;48.206;16.340;2023-06-10T02:09:12;98879.66;;;22.46;54.71
16331;BME280;8275;48.206;16.340;2023-06-10T02:11:41;98882.09;;;22.47;54.71
16331;BME280;8275;48.206;16.340;2023-06-10T02:14:10;98883.38;;;22.50;54.84
16331;BME280;8275;48.206;16.340;2023-06-10T02:16:38;98887.00;;;22.50;54.79
16331;BME280;8275;48.206;16.340;2023-06-10T02:19:07;98875.97;;;22.54;54.86
16331;BME280;8275;48.206;16.340;2023-06-10T02:21:35;98880.06;;;22.56;54.25
16331;BME280;8275;48.206;16.340;2023-06-10T02:24:05;98881.31;;;22.59;54.34
16331;BME280;8275;48.206;16.340;2023-06-10T02:26:34;98879.34;;;22.59;54.57
16331;BME280;8275;48.206;16.340;2023-06-10T02:29:03;98877.38;;;22.60;54.08
16331;BME280;8275;48.206;16.340;2023-06-10T02:31:32;98877.38;;;22.60;54.43
16331;BME280;8275;48.206;16.340;2023-06-10T02:34:02;98873.75;;;22.59;54.11
16331;BME280;8275;48.206;16.340;2023-06-10T02:36:31;98874.09;;;22.58;54.38
16331;BME280;8275;48.206;16.340;2023-06-10T02:38:59;98873.66;;;22.56;54.29
16331;BME280;8275;48.206;16.340;2023-06-10T02:41:28;98868.38;;;22.54;54.52
16331;BME280;8275;48.206;16.340;2023-06-10T02:43:56;98872.34;;;22.53;54.32
16331;BME280;8275;48.206;16.340;2023-06-10T02:46:26;98870.72;;;22.52;54.24
16331;BME280;8275;48.206;16.340;2023-06-10T02:48:56;98872.34;;;22.53;54.63
16331;BME280;8275;48.206;16.340;2023-06-10T02:51:24;98871.53;;;22.53;54.75
16331;BME280;8275;48.206;16.340;2023-06-10T02:53:52;98878.75;;;22.54;54.65
16331;BME280;8275;48.206;16.340;2023-06-10T02:56:21;98885.13;;;22.54;54.47
16331;BME280;8275;48.206;16.340;2023-06-10T02:58:49;98890.72;;;22.54;54.61
16331;BME280;8275;48.206;16.340;2023-06-10T03:01:19;98895.25;;;22.59;54.49
16331;BME280;8275;48.206;16.340;2023-06-10T03:03:49;98882.63;;;22.61;54.71
16331;BME280;8275;48.206;16.340;2023-06-10T03:06:17;98886.38;;;22.65;54.43
16331;BME280;8275;48.206;16.340;2023-06-10T03:08:46;98889.75;;;22.71;54.57
16331;BME280;8275;48.206;16.340;2023-06-10T03:11:14;98883.97;;;22.76;54.29
16331;BME280;8275;48.206;16.340;2023-06-10T03:13:43;98890.47;;;22.80;54.24
16331;BME280;8275;48.206;16.340;2023-06-10T03:16:11;98889.44;;;22.84;54.45
16331;BME280;8275;48.206;16.340;2023-06-10T03:18:40;98882.34;;;22.87;54.29
16331;BME280;8275;48.206;16.340;2023-06-10T03:21:10;98887.72;;;22.92;54.29
16331;BME280;8275;48.206;16.340;2023-06-10T03:23:38;98890.97;;;22.94;54.03
16331;BME280;8275;48.206;16.340;2023-06-10T03:26:07;98890.63;;;22.95;54.25
16331;BME280;8275;48.206;16.340;2023-06-10T03:28:37;98886.31;;;22.98;54.11
16331;BME280;8275;48.206;16.340;2023-06-10T03:31:05;98886.00;;;22.99;53.96
16331;BME280;8275;48.206;16.340;2023-06-10T03:33:34;98889.25;;;23.01;54.05
16331;BME280;8275;48.206;16.340;2023-06-10T03:36:03;98879.81;;;23.06;54.21
16331;BME280;8275;48.206;16.340;2023-06-10T03:38:33;98877.50;;;23.08;53.88
16331;BME280;8275;48.206;16.340;2023-06-10T03:41:02;98888.44;;;23.13;53.80
16331;BME280;8275;48.206;16.340;2023-06-10T03:43:31;98885.44;;;23.18;53.78
16331;BME280;8275;48.206;16.340;2023-06-10T03:46:00;98892.88;;;23.26;53.94
16331;BME280;8275;48.206;16.340;2023-06-10T03:48:28;98884.25;;;23.31;53.45
16331;BME280;8275;48.206;16.340;2023-06-10T03:50:58;98888.00;;;23.35;53.65
16331;BME280;8275;48.206;16.340;2023-06-10T03:53:26;98890.56;;;23.40;53.46
16331;BME280;8275;48.206;16.340;2023-06-10T03:55:56;98887.09;;;23.43;53.28
16331;BME280;8275;48.206;16.340;2023-06-10T03:58:24;98885.59;;;23.46;53.25
16331;BME280;8275;48.206;16.340;2023-06-10T04:00:53;98889.28;;;23.50;53.26
16331;BME280;8275;48.206;16.340;2023-06-10T04:03:23;98889.84;;;23.55;53.41
16331;BME280;8275;48.206;16.340;2023-06-10T04:05:51;98898.00;;;23.60;53.30
16331;BME280;8275;48.206;16.340;2023-06-10T04:08:20;98897.41;;;23.67;53.13
16331;BME280;8275;48.206;16.340;2023-06-10T04:10:49;98904.75;;;23.71;53.17
16331;BME280;8275;48.206;16.340;2023-06-10T04:13:19;98892.88;;;23.74;52.99
16331;BME280;8275;48.206;16.340;2023-06-10T04:15:47;98900.56;;;23.78;52.80
16331;BME280;8275;48.206;16.340;2023-06-10T04:18:16;98896.72;;;23.82;52.70
16331;BME280;8275;48.206;16.340;2023-06-10T04:20:44;98896.81;;;23.86;52.72
16331;BME280;8275;48.206;16.340;2023-06-10T04:23:13;98906.16;;;23.90;52.62
16331;BME280;8275;48.206;16.340;2023-06-10T04:25:41;98898.69;;;23.94;52.66
16331;BME280;8275;48.206;16.340;2023-06-10T04:28:10;98901.56;;;23.97;52.45
16331;BME280;8275;48.206;16.340;2023-06-10T04:30:39;98889.56;;;23.97;52.31
16331;BME280;8275;48.206;16.340;2023-06-10T04:33:08;98896.78;;;23.98;52.26
16331;BME280;8275;48.206;16.340;2023-06-10T04:35:37;98900.06;;;24.00;52.24
16331;BME280;8275;48.206;16.340;2023-06-10T04:38:05;98890.13;;;24.02;52.12
16331;BME280;8275;48.206;16.340;2023-06-10T04:40:34;98887.50;;;24.06;52.22
16331;BME280;8275;48.206;16.340;2023-06-10T04:43:03;98890.38;;;24.09;52.18
16331;BME280;8275;48.206;16.340;2023-06-10T04:45:31;98891.28;;;24.13;51.98
16331;BME280;8275;48.206;16.340;2023-06-10T04:48:01;98890.34;;;24.21;52.04
16331;BME280;8275;48.206;16.340;2023-06-10T04:50:30;98884.13;;;24.28;52.02
16331;BME280;8275;48.206;16.340;2023-06-10T04:53:00;98887.59;;;24.37;51.94
16331;BME280;8275;48.206;16.340;2023-06-10T04:55:28;98889.78;;;24.43;51.70
16331;BME280;8275;48.206;16.340;2023-06-10T04:57:57;98888.84;;;24.52;51.58
16331;BME280;8275;48.206;16.340;2023-06-10T05:00:26;98895.41;;;24.59;51.32
16331;BME280;8275;48.206;16.340;2023-06-10T05:02:55;98896.34;;;24.63;51.20
16331;BME280;8275;48.206;16.340;2023-06-10T05:05:25;98887.59;;;24.65;51.09
16331;BME280;8275;48.206;16.340;2023-06-10T05:07:53;98888.88;;;24.67;50.93
16331;BME280;8275;48.206;16.340;2023-06-10T05:10:22;98896.91;;;24.69;50.75
16331;BME280;8275;48.206;16.340;2023-06-10T05:12:50;98894.53;;;24.71;50.77
16331;BME280;8275;48.206;16.340;2023-06-10T05:15:19;98900.16;;;24.71;50.91
16331;BME280;8275;48.206;16.340;2023-06-10T05:17:47;98892.34;;;24.76;50.67
16331;BME280;8275;48.206;16.340;2023-06-10T05:20:16;98899.66;;;24.81;50.64
16331;BME280;8275;48.206;16.340;2023-06-10T05:22:46;98897.06;;;24.88;50.68
16331;BME280;8275;48.206;16.340;2023-06-10T05:25:15;98901.66;;;24.96;50.67
16331;BME280;8275;48.206;16.340;2023-06-10T05:27:43;98896.63;;;25.01;50.19
16331;BME280;8275;48.206;16.340;2023-06-10T05:30:12;98897.53;;;25.05;50.16
16331;BME280;8275;48.206;16.340;2023-06-10T05:32:41;98900.50;;;25.13;50.10
16331;BME280;8275;48.206;16.340;2023-06-10T05:35:09;98897.00;;;25.16;49.88
16331;BME280;8275;48.206;16.340;2023-06-10T05:37:38;98895.91;;;25.20;49.91
16331;BME280;8275;48.206;16.340;2023-06-10T05:40:09;98898.44;;;25.25;50.01
16331;BME280;8275;48.206;16.340;2023-06-10T05:42:38;98899.34;;;25.29;49.56
16331;BME280;8275;48.206;16.340;2023-06-10T05:45:09;98906.13;;;25.28;49.65
16331;BME280;8275;48.206;16.340;2023-06-10T05:47:38;98905.03;;;25.33;49.39
16331;BME280;8275;48.206;16.340;2023-06-10T05:50:08;98901.94;;;25.38;49.41
16331;BME280;8275;48.206;16.340;2023-06-10T05:52:37;98908.97;;;25.44;49.23
16331;BME280;8275;48.206;16.340;2023-06-10T05:55:10;98911.47;;;25.49;49.05
16331;BME280;8275;48.206;16.340;2023-06-10T05:57:40;98911.94;;;25.51;49.19
16331;BME280;8275;48.206;16.340;2023-06-10T06:00:10;98914.19;;;25.45;49.03
16331;BME280;8275;48.206;16.340;2023-06-10T06:02:39;98910.94;;;25.43;49.05
16331;BME280;8275;48.206;16.340;2023-06-10T06:05:08;98912.00;;;25.39;49.13
16331;BME280;8275;48.206;16.340;2023-06-10T06:07:37;98913.81;;;25.31;48.73
16331;BME280;8275;48.206;16.340;2023-06-10T06:10:08;98915.63;;;25.24;48.99
16331;BME280;8275;48.206;16.340;2023-06-10T06:12:37;98904.69;;;25.19;48.99
16331;BME280;8275;48.206;16.340;2023-06-10T06:15:07;98912.44;;;25.09;49.15
16331;BME280;8275;48.206;16.340;2023-06-10T06:17:36;98928.28;;;25.02;49.17
16331;BME280;8275;48.206;16.340;2023-06-10T06:20:07;98924.81;;;24.93;49.18
16331;BME280;8275;48.206;16.340;2023-06-10T06:22:35;98926.53;;;24.82;49.40
16331;BME280;8275;48.206;16.340;2023-06-10T06:25:05;98936.56;;;24.71;49.57
16331;BME280;8275;48.206;16.340;2023-06-10T06:27:36;98933.22;;;24.65;49.96
16331;BME280;8275;48.206;16.340;2023-06-10T06:30:08;98935.47;;;24.60;50.12
16331;BME280;8275;48.206;16.340;2023-06-10T06:32:37;98923.81;;;24.58;50.27
16331;BME280;8275;48.206;16.340;2023-06-10T06:35:07;98930.94;;;24.55;50.22
16331;BME280;8275;48.206;16.340;2023-06-10T06:37:36;98934.91;;;24.54;50.29
16331;BME280;8275;48.206;16.340;2023-06-10T06:40:06;98926.41;;;24.51;50.32
16331;BME280;8275;48.206;16.340;2023-06-10T06:42:36;98928.81;;;24.52;50.53
16331;BME280;8275;48.206;16.340;2023-06-10T06:45:06;98927.31;;;24.55;50.58
16331;BME280;8275;48.206;16.340;2023-06-10T06:47:35;98935.00;;;24.58;50.38
16331;BME280;8275;48.206;16.340;2023-06-10T06:50:05;98930.69;;;24.60;50.55
16331;BME280;8275;48.206;16.340;2023-06-10T06:52:33;98933.56;;;24.64;50.37
16331;BME280;8275;48.206;16.340;2023-06-10T06:55:02;98927.25;;;24.67;50.58
16331;BME280;8275;48.206;16.340;2023-06-10T06:57:30;98927.09;;;24.75;50.55
16331;BME280;8275;48.206;16.340;2023-06-10T07:00:00;98930.94;;;24.83;50.29
16331;BME280;8275;48.206;16.340;2023-06-10T07:02:29;98932.03;;;24.94;50.17
16331;BME280;8275;48.206;16.340;2023-06-10T07:04:59;98931.59;;;25.07;50.06
16331;BME280;8275;48.206;16.340;2023-06-10T07:07:27;98941.22;;;25.22;49.74
16331;BME280;8275;48.206;16.340;2023-06-10T07:09:56;98939.16;;;25.35;49.58
16331;BME280;8275;48.206;16.340;2023-06-10T07:12:25;98934.22;;;25.44;49.37
16331;BME280;8275;48.206;16.340;2023-06-10T07:14:53;98937.97;;;25.51;49.14
16331;BME280;8275;48.206;16.340;2023-06-10T07:17:23;98927.31;;;25.57;48.73
16331;BME280;8275;48.206;16.340;2023-06-10T07:19:51;98931.84;;;25.61;48.87
16331;BME280;8275;48.206;16.340;2023-06-10T07:22:20;98935.19;;;25.67;48.73
16331;BME280;8275;48.206;16.340;2023-06-10T07:24:48;98933.28;;;25.71;48.77
16331;BME280;8275;48.206;16.340;2023-06-10T07:27:18;98933.34;;;25.74;48.37
16331;BME280;8275;48.206;16.340;2023-06-10T07:29:46;98927.00;;;25.77;48.19
16331;BME280;8275;48.206;16.340;2023-06-10T07:32:15;98929.09;;;25.81;48.33
16331;BME280;8275;48.206;16.340;2023-06-10T07:34:46;98937.59;;;25.84;48.11
16331;BME280;8275;48.206;16.340;2023-06-10T07:37:15;98936.94;;;25.91;48.05
16331;BME280;8275;48.206;16.340;2023-06-10T07:39:43;98937.03;;;25.94;48.08
16331;BME280;8275;48.206;16.340;2023-06-10T07:42:12;98925.97;;;26.01;47.33
16331;BME280;8275;48.206;16.340;2023-06-10T07:44:40;98932.09;;;26.07;47.33
16331;BME280;8275;48.206;16.340;2023-06-10T07:47:09;98934.66;;;26.12;47.49
16331;BME280;8275;48.206;16.340;2023-06-10T07:49:37;98937.56;;;26.15;46.96
16331;BME280;8275;48.206;16.340;2023-06-10T07:52:08;98939.59;;;26.18;47.09
16331;BME280;8275;48.206;16.340;2023-06-10T07:54:37;98942.50;;;26.22;46.97
16331;BME280;8275;48.206;16.340;2023-06-10T07:57:06;98945.81;;;26.27;46.47
16331;BME280;8275;48.206;16.340;2023-06-10T07:59:35;98944.28;;;26.30;46.67
16331;BME280;8275;48.206;16.340;2023-06-10T08:02:04;98952.34;;;26.31;46.44
16331;BME280;8275;48.206;16.340;2023-06-10T08:04:32;98948.44;;;26.36;46.34
16331;BME280;8275;48.206;16.340;2023-06-10T08:07:02;98947.34;;;26.40;46.18
16331;BME280;8275;48.206;16.340;2023-06-10T08:09:32;98947.78;;;26.42;46.64
16331;BME280;8275;48.206;16.340;2023-06-10T08:12:01;98949.84;;;26.45;46.36
16331;BME280;8275;48.206;16.340;2023-06-10T08:14:30;98951.03;;;26.44;46.08
16331;BME280;8275;48.206;16.340;2023-06-10T08:16:58;98948.13;;;26.41;45.64
16331;BME280;8275;48.206;16.340;2023-06-10T08:19:27;98942.44;;;26.37;45.79
16331;BME280;8275;48.206;16.340;2023-06-10T08:21:55;98942.00;;;26.35;46.24
16331;BME280;8275;48.206;16.340;2023-06-10T08:24:24;98945.53;;;26.32;46.19
16331;BME280;8275;48.206;16.340;2023-06-10T08:26:54;98944.72;;;26.32;45.99
16331;BME280;8275;48.206;16.340;2023-06-10T08:29:23;98950.34;;;26.32;45.94
16331;BME280;8275;48.206;16.340;2023-06-10T08:31:52;98949.16;;;26.33;45.87
16331;BME280;8275;48.206;16.340;2023-06-10T08:34:20;98956.72;;;26.29;45.87
16331;BME280;8275;48.206;16.340;2023-06-10T08:36:49;98954.19;;;26.24;45.85
16331;BME280;8275;48.206;16.340;2023-06-10T08:39:20;98952.03;;;26.17;46.54
16331;BME280;8275;48.206;16.340;2023-06-10T08:42:03;98948.69;;;26.12;46.55
16331;BME280;8275;48.206;16.340;2023-06-10T08:44:35;98952.75;;;26.14;46.61
16331;BME280;8275;48.206;16.340;2023-06-10T08:47:10;98959.66;;;26.17;46.58
16331;BME280;8275;48.206;16.340;2023-06-10T08:49:43;98962.63;;;26.24;46.59
16331;BME280;8275;48.206;16.340;2023-06-10T08:52:16;98960.84;;;26.35;46.86
16331;BME280;8275;48.206;16.340;2023-06-10T08:54:52;98958.34;;;26.49;46.58
16331;BME280;8275;48.206;16.340;2023-06-10T08:57:22;98949.47;;;26.66;46.13
16331;BME280;8275;48.206;16.340;2023-06-10T08:59:53;98958.22;;;26.80;45.82
16331;BME280;8275;48.206;16.340;2023-06-10T09:02:22;98955.53;;;26.87;45.41
16331;BME280;8275;48.206;16.340;2023-06-10T09:04:52;98958.50;;;26.94;45.67
16331;BME280;8275;48.206;16.340;2023-06-10T09:07:21;98955.91;;;27.05;45.48
16331;BME280;8275;48.206;16.340;2023-06-10T09:09:50;98952.16;;;27.20;45.08
16331;BME280;8275;48.206;16.340;2023-06-10T09:12:22;98954.53;;;27.37;45.04
16331;BME280;8275;48.206;16.340;2023-06-10T09:14:50;98949.19;;;27.55;44.56
16331;BME280;8275;48.206;16.340;2023-06-10T09:17:19;98954.22;;;27.65;44.31
16331;BME280;8275;48.206;16.340;2023-06-10T09:19:48;98955.94;;;27.73;44.15
16331;BME280;8275;48.206;16.340;2023-06-10T09:22:17;98950.03;;;27.81;44.27
16331;BME280;8275;48.206;16.340;2023-06-10T09:24:46;98955.34;;;27.87;43.99
16331;BME280;8275;48.206;16.340;2023-06-10T09:27:16;98957.84;;;27.92;43.56
16331;BME280;8275;48.206;16.340;2023-06-10T09:29:52;98957.88;;;27.95;43.44
16331;BME280;8275;48.206;16.340;2023-06-10T09:32:21;98952.88;;;28.08;43.17
16331;BME280;8275;48.206;16.340;2023-06-10T09:34:50;98955.50;;;28.20;43.29
16331;BME280;8275;48.206;16.340;2023-06-10T09:37:23;98952.38;;;28.28;42.80
16331;BME280;8275;48.206;16.340;2023-06-10T09:40:06;98950.06;;;28.34;42.24
16331;BME280;8275;48.206;16.340;2023-06-10T09:42:38;98950.94;;;28.41;42.41
16331;BME280;8275;48.206;16.340;2023-06-10T09:45:09;98945.47;;;28.52;41.91
16331;BME280;8275;48.206;16.340;2023-06-10T09:47:37;98936.84;;;28.71;42.23
16331;BME280;8275;48.206;16.340;2023-06-10T09:50:06;98941.88;;;28.85;41.82
16331;BME280;8275;48.206;16.340;2023-06-10T09:52:37;98934.28;;;28.92;41.17
16331;BME280;8275;48.206;16.340;2023-06-10T09:55:09;98933.94;;;28.94;40.71
16331;BME280;8275;48.206;16.340;2023-06-10T09:57:38;98929.56;;;29.00;40.58
16331;BME280;8275;48.206;16.340;2023-06-10T10:00:12;98931.63;;;29.06;40.41
16331;BME280;8275;48.206;16.340;2023-06-10T10:02:48;98935.81;;;29.19;40.41
16331;BME280;8275;48.206;16.340;2023-06-10T10:05:19;98931.56;;;29.36;40.25
16331;BME280;8275;48.206;16.340;2023-06-10T10:07:49;98938.56;;;29.53;39.89
16331;BME280;8275;48.206;16.340;2023-06-10T10:10:19;98928.94;;;29.61;39.53
16331;BME280;8275;48.206;16.340;2023-06-10T10:12:52;98924.63;;;29.74;39.67
16331;BME280;8275;48.206;16.340;2023-06-10T10:15:29;98922.34;;;29.90;39.63
16331;BME280;8275;48.206;16.340;2023-06-10T10:18:06;98916.81;;;30.04;39.21
16331;BME280;8275;48.206;16.340;2023-06-10T10:20:43;98917.31;;;30.20;39.06
16331;BME280;8275;48.206;16.340;2023-06-10T10:23:17;98918.19;;;30.35;38.34
16331;BME280;8275;48.206;16.340;2023-06-10T10:25:52;98904.91;;;30.42;38.27
16331;BME280;8275;48.206;16.340;2023-06-10T10:28:24;98917.44;;;30.48;37.94
16331;BME280;8275;48.206;16.340;2023-06-10T10:30:59;98910.59;;;30.53;37.71
16331;BME280;8275;48.206;16.340;2023-06-10T10:33:39;98911.03;;;30.55;37.76
16331;BME280;8275;48.206;16.340;2023-06-10T10:36:09;98915.13;;;30.72;37.75
16331;BME280;8275;48.206;16.340;2023-06-10T10:38:39;98905.53;;;30.90;37.27
16331;BME280;8275;48.206;16.340;2023-06-10T10:41:07;98903.16;;;31.13;37.01
16331;BME280;8275;48.206;16.340;2023-06-10T10:43:37;98903.97;;;31.39;36.66
16331;BME280;8275;48.206;16.340;2023-06-10T10:46:12;98904.41;;;31.69;36.70
16331;BME280;8275;48.206;16.340;2023-06-10T10:48:42;98897.13;;;31.92;35.07
16331;BME280;8275;48.206;16.340;2023-06-10T10:51:11;98889.34;;;32.28;35.42
16331;BME280;8275;48.206;16.340;2023-06-10T10:53:40;98890.44;;;32.63;34.02
16331;BME280;8275;48.206;16.340;2023-06-10T10:56:14;98886.34;;;32.74;33.47
16331;BME280;8275;48.206;16.340;2023-06-10T10:59:03;98885.50;;;32.88;33.65
16331;BME280;8275;48.206;16.340;2023-06-10T11:01:42;98887.41;;;33.08;33.35
16331;BME280;8275;48.206;16.340;2023-06-10T11:04:13;98885.09;;;33.44;33.03
16331;BME280;8275;48.206;16.340;2023-06-10T11:06:52;98877.09;;;33.80;32.61
16331;BME280;8275;48.206;16.340;2023-06-10T11:09:28;98873.09;;;34.18;31.67
16331;BME280;8275;48.206;16.340;2023-06-10T11:11:57;98873.53;;;34.47;31.66
16331;BME280;8275;48.206;16.340;2023-06-10T11:14:27;98864.47;;;34.59;30.91
16331;BME280;8275;48.206;16.340;2023-06-10T11:16:59;98867.78;;;34.54;31.15
16331;BME280;8275;48.206;16.340;2023-06-10T11:19:35;98863.34;;;34.49;31.05
16331;BME280;8275;48.206;16.340;2023-06-10T11:22:05;98850.38;;;34.48;31.07
16331;BME280;8275;48.206;16.340;2023-06-10T11:24:34;98853.25;;;34.45;31.04
16331;BME280;8275;48.206;16.340;2023-06-10T11:27:18;98854.38;;;34.21;30.93
16331;BME280;8275;48.206;16.340;2023-06-10T11:30:18;98842.84;;;33.94;31.10
16331;BME280;8275;48.206;16.340;2023-06-10T11:32:51;98840.13;;;33.83;30.92
16331;BME280;8275;48.206;16.340;2023-06-10T11:35:24;98857.00;;;33.60;31.05
16331;BME280;8275;48.206;16.340;2023-06-10T11:37:54;98854.38;;;33.32;31.09
16331;BME280;8275;48.206;16.340;2023-06-10T11:40:23;98856.63;;;33.03;31.30
16331;BME280;8275;48.206;16.340;2023-06-10T11:42:51;98853.50;;;32.77;31.94
16331;BME280;8275;48.206;16.340;2023-06-10T11:45:20;98848.34;;;32.61;32.29
16331;BME280;8275;48.206;16.340;2023-06-10T11:47:59;98845.03;;;32.70;32.09
16331;BME280;8275;48.206;16.340;2023-06-10T11:50:30;98840.53;;;32.79;32.19
16331;BME280;8275;48.206;16.340;2023-06-10T11:52:59;98834.47;;;32.77;31.91
16331;BME280;8275;48.206;16.340;2023-06-10T11:55:41;98836.94;;;32.68;32.07
16331;BME280;8275;48.206;16.340;2023-06-10T11:58:14;98832.34;;;32.92;31.83
16331;BME280;8275;48.206;16.340;2023-06-10T12:00:47;98824.63;;;33.47;32.07
16331;BME280;8275;48.206;16.340;2023-06-10T12:03:17;98826.78;;;34.18;31.73
16331;BME280;8275;48.206;16.340;2023-06-10T12:05:56;98818.13;;;34.58;30.20
16331;BME280;8275;48.206;16.340;2023-06-10T12:08:25;98819.59;;;34.70;29.94
16331;BME280;8275;48.206;16.340;2023-06-10T12:10:55;98822.06;;;34.68;29.81
16331;BME280;8275;48.206;16.340;2023-06-10T12:13:26;98807.59;;;34.86;30.06
16331;BME280;8275;48.206;16.340;2023-06-10T12:16:05;98807.50;;;35.43;30.32
16331;BME280;8275;48.206;16.340;2023-06-10T12:18:35;98803.50;;;36.26;29.04
16331;BME280;8275;48.206;16.340;2023-06-10T12:21:19;98796.44;;;37.21;28.99
16331;BME280;8275;48.206;16.340;2023-06-10T12:24:06;98802.63;;;37.97;27.86
16331;BME280;8275;48.206;16.340;2023-06-10T12:26:40;98807.03;;;38.30;27.12
16331;BME280;8275;48.206;16.340;2023-06-10T12:29:19;98800.34;;;38.62;25.36
16331;BME280;8275;48.206;16.340;2023-06-10T12:32:01;98799.19;;;38.47;25.21
16331;BME280;8275;48.206;16.340;2023-06-10T12:34:34;98814.94;;;38.10;25.06
16331;BME280;8275;48.206;16.340;2023-06-10T12:37:06;98803.13;;;37.63;25.58
16331;BME280;8275;48.206;16.340;2023-06-10T12:39:41;98800.38;;;37.11;25.45
16331;BME280;8275;48.206;16.340;2023-06-10T12:42:10;98803.13;;;36.63;26.01
16331;BME280;8275;48.206;16.340;2023-06-10T12:44:40;98806.28;;;36.10;26.31
16331;BME280;8275;48.206;16.340;2023-06-10T12:47:10;98816.78;;;35.50;26.67
16331;BME280;8275;48.206;16.340;2023-06-10T12:49:41;98826.44;;;34.76;28.78
16331;BME280;8275;48.206;16.340;2023-06-10T12:52:09;98830.38;;;33.84;34.40
16331;BME280;8275;48.206;16.340;2023-06-10T12:54:38;98837.25;;;32.84;35.82
16331;BME280;8275;48.206;16.340;2023-06-10T12:57:07;98846.09;;;31.89;37.12
16331;BME280;8275;48.206;16.340;2023-06-10T12:59:35;98836.84;;;31.00;39.52
16331;BME280;8275;48.206;16.340;2023-06-10T13:02:04;98848.69;;;30.27;41.01
16331;BME280;8275;48.206;16.340;2023-06-10T13:04:32;98839.03;;;29.63;42.47
16331;BME280;8275;48.206;16.340;2023-06-10T13:07:02;98849.88;;;29.10;43.40
16331;BME280;8275;48.206;16.340;2023-06-10T13:09:31;98853.03;;;28.65;44.86
16331;BME280;8275;48.206;16.340;2023-06-10T13:12:00;98845.31;;;28.28;46.00
16331;BME280;8275;48.206;16.340;2023-06-10T13:14:29;98849.41;;;28.01;47.43
16331;BME280;8275;48.206;16.340;2023-06-10T13:16:57;98844.72;;;27.86;48.42